sensor_id;sensor_type;location;lat;lon;timestamp;P1;durP1;ratioP1;P2;durP2;ratioP2
803;SDS011;25687;49.976;8.240;2023-09-19T00:00:19;3.27;;;1.80;;
803;SDS011;25687;49.976;8.240;2023-09-19T00:02:54;3.63;;;1.47;;
803;SDS011;25687;49.976;8.240;2023-09-19T00:05:24;2.33;;;2.03;;
803;SDS011;25687;49.976;8.240;2023-09-19T00:07:52;2.93;;;1.77;;
803;SDS011;25687;49.976;8.240;2023-09-19T00:10:27;4.47;;;1.73;;
803;SDS011;25687;49.976;8.240;2023-09-19T00:12:56;3.83;;;1.70;;
803;SDS011;25687;49.976;8.240;2023-09-19T00:15:23;1.87;;;1.47;;
803;SDS011;25687;49.976;8.240;2023-09-19T00:18:12;4.50;;;1.90;;
803;SDS011;25687;49.976;8.240;2023-09-19T00:20:38;3.83;;;1.83;;
803;SDS011;25687;49.976;8.240;2023-09-19T00:23:07;2.93;;;1.70;;
803;SDS011;25687;49.976;8.240;2023-09-19T00:25:33;2.87;;;2.03;;
803;SDS011;25687;49.976;8.240;2023-09-19T00:28:00;2.03;;;1.80;;
803;SDS011;25687;49.976;8.240;2023-09-19T00:30:26;3.63;;;1.87;;
803;SDS011;25687;49.976;8.240;2023-09-19T00:32:52;2.07;;;1.53;;
803;SDS011;25687;49.976;8.240;2023-09-19T00:35:18;8.37;;;2.10;;
803;SDS011;25687;49.976;8.240;2023-09-19T00:37:50;2.50;;;1.87;;
803;SDS011;25687;49.976;8.240;2023-09-19T00:40:16;3.37;;;2.13;;
803;SDS011;25687;49.976;8.240;2023-09-19T00:42:45;3.53;;;2.10;;
803;SDS011;25687;49.976;8.240;2023-09-19T00:45:12;2.50;;;1.80;;
803;SDS011;25687;49.976;8.240;2023-09-19T00:47:39;4.33;;;2.47;;
803;SDS011;25687;49.976;8.240;2023-09-19T00:50:09;5.23;;;2.10;;
803;SDS011;25687;49.976;8.240;2023-09-19T00:52:36;4.60;;;2.13;;
803;SDS011;25687;49.976;8.240;2023-09-19T00:55:07;2.13;;;1.77;;
803;SDS011;25687;49.976;8.240;2023-09-19T00:57:34;2.57;;;2.10;;
803;SDS011;25687;49.976;8.240;2023-09-19T01:00:01;8.67;;;2.53;;
803;SDS011;25687;49.976;8.240;2023-09-19T01:02:32;7.73;;;2.43;;
803;SDS011;25687;49.976;8.240;2023-09-19T01:04:59;2.47;;;1.90;;
803;SDS011;25687;49.976;8.240;2023-09-19T01:07:26;5.30;;;2.00;;
803;SDS011;25687;49.976;8.240;2023-09-19T01:09:54;5.30;;;2.50;;
803;SDS011;25687;49.976;8.240;2023-09-19T01:12:22;4.37;;;2.20;;
803;SDS011;25687;49.976;8.240;2023-09-19T01:14:59;3.87;;;2.00;;
803;SDS011;25687;49.976;8.240;2023-09-19T01:17:32;5.10;;;2.10;;
803;SDS011;25687;49.976;8.240;2023-09-19T01:20:07;3.73;;;2.23;;
803;SDS011;25687;49.976;8.240;2023-09-19T01:28:39;5.03;;;2.27;;
803;SDS011;25687;49.976;8.240;2023-09-19T01:31:19;3.10;;;2.60;;
803;SDS011;25687;49.976;8.240;2023-09-19T01:33:54;2.60;;;2.40;;
803;SDS011;25687;49.976;8.240;2023-09-19T01:36:29;5.67;;;2.40;;
803;SDS011;25687;49.976;8.240;2023-09-19T01:39:07;3.13;;;2.20;;
803;SDS011;25687;49.976;8.240;2023-09-19T01:44:31;4.60;;;2.60;;
803;SDS011;25687;49.976;8.240;2023-09-19T01:47:15;3.40;;;2.30;;
803;SDS011;25687;49.976;8.240;2023-09-19T01:49:55;2.67;;;1.97;;
803;SDS011;25687;49.976;8.240;2023-09-19T01:52:36;3.93;;;2.20;;
803;SDS011;25687;49.976;8.240;2023-09-19T01:55:09;5.50;;;2.77;;
803;SDS011;25687;49.976;8.240;2023-09-19T01:57:40;5.80;;;2.30;;
803;SDS011;25687;49.976;8.240;2023-09-19T02:00:13;4.33;;;2.20;;
803;SDS011;25687;49.976;8.240;2023-09-19T02:02:42;7.13;;;2.30;;
803;SDS011;25687;49.976;8.240;2023-09-19T02:05:10;4.60;;;2.17;;
803;SDS011;25687;49.976;8.240;2023-09-19T02:07:37;4.13;;;2.40;;
803;SDS011;25687;49.976;8.240;2023-09-19T02:10:04;5.93;;;2.43;;
803;SDS011;25687;49.976;8.240;2023-09-19T02:12:30;2.93;;;2.40;;
803;SDS011;25687;49.976;8.240;2023-09-19T02:14:57;2.73;;;2.30;;
803;SDS011;25687;49.976;8.240;2023-09-19T02:17:24;2.80;;;2.50;;
803;SDS011;25687;49.976;8.240;2023-09-19T02:19:55;3.60;;;2.00;;
803;SDS011;25687;49.976;8.240;2023-09-19T02:22:20;6.43;;;2.70;;
803;SDS011;25687;49.976;8.240;2023-09-19T02:24:48;3.37;;;2.20;;
803;SDS011;25687;49.976;8.240;2023-09-19T02:27:13;4.57;;;2.30;;
803;SDS011;25687;49.976;8.240;2023-09-19T02:29:40;5.00;;;2.50;;
803;SDS011;25687;49.976;8.240;2023-09-19T02:32:06;2.43;;;2.23;;
803;SDS011;25687;49.976;8.240;2023-09-19T02:34:32;5.53;;;2.50;;
803;SDS011;25687;49.976;8.240;2023-09-19T02:36:57;3.83;;;2.17;;
803;SDS011;25687;49.976;8.240;2023-09-19T02:39:22;4.23;;;2.30;;
803;SDS011;25687;49.976;8.240;2023-09-19T02:41:48;6.97;;;2.50;;
803;SDS011;25687;49.976;8.240;2023-09-19T02:44:14;3.03;;;2.40;;
803;SDS011;25687;49.976;8.240;2023-09-19T02:46:39;3.93;;;2.83;;
803;SDS011;25687;49.976;8.240;2023-09-19T02:49:05;5.33;;;2.70;;
803;SDS011;25687;49.976;8.240;2023-09-19T02:51:31;4.90;;;2.47;;
803;SDS011;25687;49.976;8.240;2023-09-19T02:53:58;6.20;;;2.77;;
803;SDS011;25687;49.976;8.240;2023-09-19T02:56:28;7.63;;;2.87;;
803;SDS011;25687;49.976;8.240;2023-09-19T02:58:55;3.47;;;2.40;;
803;SDS011;25687;49.976;8.240;2023-09-19T03:01:21;2.83;;;2.27;;
803;SDS011;25687;49.976;8.240;2023-09-19T03:03:46;4.53;;;2.30;;
803;SDS011;25687;49.976;8.240;2023-09-19T03:06:11;6.03;;;2.30;;
803;SDS011;25687;49.976;8.240;2023-09-19T03:08:38;3.73;;;2.50;;
803;SDS011;25687;49.976;8.240;2023-09-19T03:11:04;4.00;;;2.10;;
803;SDS011;25687;49.976;8.240;2023-09-19T03:13:31;9.43;;;3.00;;
803;SDS011;25687;49.976;8.240;2023-09-19T03:16:01;3.87;;;2.43;;
803;SDS011;25687;49.976;8.240;2023-09-19T03:18:30;5.50;;;2.60;;
803;SDS011;25687;49.976;8.240;2023-09-19T03:20:57;5.10;;;2.50;;
803;SDS011;25687;49.976;8.240;2023-09-19T03:23:24;2.83;;;2.63;;
803;SDS011;25687;49.976;8.240;2023-09-19T03:25:51;3.60;;;2.60;;
803;SDS011;25687;49.976;8.240;2023-09-19T03:28:17;3.93;;;2.47;;
803;SDS011;25687;49.976;8.240;2023-09-19T03:30:43;6.20;;;2.90;;
803;SDS011;25687;49.976;8.240;2023-09-19T03:33:09;3.97;;;2.47;;
803;SDS011;25687;49.976;8.240;2023-09-19T03:35:36;3.70;;;2.80;;
803;SDS011;25687;49.976;8.240;2023-09-19T03:38:03;4.77;;;2.40;;
803;SDS011;25687;49.976;8.240;2023-09-19T03:40:29;4.90;;;2.50;;
803;SDS011;25687;49.976;8.240;2023-09-19T03:42:54;6.80;;;2.70;;
803;SDS011;25687;49.976;8.240;2023-09-19T03:45:20;3.80;;;2.43;;
803;SDS011;25687;49.976;8.240;2023-09-19T03:47:45;5.53;;;3.10;;
803;SDS011;25687;49.976;8.240;2023-09-19T03:50:13;4.67;;;2.63;;
803;SDS011;25687;49.976;8.240;2023-09-19T03:52:42;4.20;;;2.50;;
803;SDS011;25687;49.976;8.240;2023-09-19T03:55:08;5.70;;;2.43;;
803;SDS011;25687;49.976;8.240;2023-09-19T03:57:34;3.80;;;2.53;;
803;SDS011;25687;49.976;8.240;2023-09-19T04:00:00;4.17;;;2.60;;
803;SDS011;25687;49.976;8.240;2023-09-19T04:02:26;6.13;;;3.37;;
803;SDS011;25687;49.976;8.240;2023-09-19T04:04:57;4.33;;;2.57;;
803;SDS011;25687;49.976;8.240;2023-09-19T04:07:23;4.40;;;2.40;;
803;SDS011;25687;49.976;8.240;2023-09-19T04:09:48;4.50;;;3.13;;
803;SDS011;25687;49.976;8.240;2023-09-19T04:12:14;5.63;;;2.53;;
803;SDS011;25687;49.976;8.240;2023-09-19T04:14:41;4.33;;;2.60;;
803;SDS011;25687;49.976;8.240;2023-09-19T04:17:07;8.00;;;2.70;;
803;SDS011;25687;49.976;8.240;2023-09-19T04:19:32;5.40;;;2.83;;
803;SDS011;25687;49.976;8.240;2023-09-19T04:21:57;5.10;;;2.90;;
803;SDS011;25687;49.976;8.240;2023-09-19T04:24:23;5.67;;;2.70;;
803;SDS011;25687;49.976;8.240;2023-09-19T04:26:48;4.17;;;2.93;;
803;SDS011;25687;49.976;8.240;2023-09-19T04:29:13;7.80;;;3.10;;
803;SDS011;25687;49.976;8.240;2023-09-19T04:31:39;7.80;;;2.90;;
803;SDS011;25687;49.976;8.240;2023-09-19T04:34:05;6.23;;;2.93;;
803;SDS011;25687;49.976;8.240;2023-09-19T04:36:30;8.00;;;3.27;;
803;SDS011;25687;49.976;8.240;2023-09-19T04:38:55;5.57;;;2.80;;
803;SDS011;25687;49.976;8.240;2023-09-19T04:41:20;6.80;;;2.70;;
803;SDS011;25687;49.976;8.240;2023-09-19T04:43:47;3.53;;;2.47;;
803;SDS011;25687;49.976;8.240;2023-09-19T04:46:12;4.47;;;2.73;;
803;SDS011;25687;49.976;8.240;2023-09-19T04:48:39;5.63;;;2.97;;
803;SDS011;25687;49.976;8.240;2023-09-19T04:51:05;5.20;;;2.70;;
803;SDS011;25687;49.976;8.240;2023-09-19T04:53:30;5.40;;;2.77;;
803;SDS011;25687;49.976;8.240;2023-09-19T04:55:55;7.07;;;3.13;;
803;SDS011;25687;49.976;8.240;2023-09-19T04:58:22;3.33;;;2.50;;
803;SDS011;25687;49.976;8.240;2023-09-19T05:00:47;3.63;;;2.57;;
803;SDS011;25687;49.976;8.240;2023-09-19T05:03:13;8.70;;;2.80;;
803;SDS011;25687;49.976;8.240;2023-09-19T05:05:38;7.53;;;3.27;;
803;SDS011;25687;49.976;8.240;2023-09-19T05:08:06;5.00;;;2.90;;
803;SDS011;25687;49.976;8.240;2023-09-19T05:10:33;6.03;;;2.60;;
803;SDS011;25687;49.976;8.240;2023-09-19T05:13:00;8.87;;;3.50;;
803;SDS011;25687;49.976;8.240;2023-09-19T05:15:26;5.73;;;2.70;;
803;SDS011;25687;49.976;8.240;2023-09-19T05:17:52;5.50;;;3.17;;
803;SDS011;25687;49.976;8.240;2023-09-19T05:20:19;4.73;;;2.87;;
803;SDS011;25687;49.976;8.240;2023-09-19T05:23:06;5.27;;;2.53;;
803;SDS011;25687;49.976;8.240;2023-09-19T05:25:34;6.07;;;3.00;;
803;SDS011;25687;49.976;8.240;2023-09-19T05:28:04;3.30;;;2.60;;
803;SDS011;25687;49.976;8.240;2023-09-19T05:30:31;5.97;;;2.87;;
803;SDS011;25687;49.976;8.240;2023-09-19T05:32:57;4.23;;;2.53;;
803;SDS011;25687;49.976;8.240;2023-09-19T05:35:23;7.60;;;2.57;;
803;SDS011;25687;49.976;8.240;2023-09-19T05:37:53;8.63;;;3.00;;
803;SDS011;25687;49.976;8.240;2023-09-19T05:40:21;6.13;;;2.40;;
803;SDS011;25687;49.976;8.240;2023-09-19T05:42:46;5.10;;;2.30;;
803;SDS011;25687;49.976;8.240;2023-09-19T05:45:12;5.60;;;2.80;;
803;SDS011;25687;49.976;8.240;2023-09-19T05:47:39;7.80;;;3.13;;
803;SDS011;25687;49.976;8.240;2023-09-19T05:50:15;5.80;;;2.63;;
803;SDS011;25687;49.976;8.240;2023-09-19T05:52:41;5.50;;;2.83;;
803;SDS011;25687;49.976;8.240;2023-09-19T05:55:07;8.97;;;2.70;;
803;SDS011;25687;49.976;8.240;2023-09-19T05:57:33;5.50;;;2.73;;
803;SDS011;25687;49.976;8.240;2023-09-19T05:59:59;7.00;;;2.73;;
803;SDS011;25687;49.976;8.240;2023-09-19T06:02:24;8.80;;;3.07;;
803;SDS011;25687;49.976;8.240;2023-09-19T06:04:53;4.37;;;2.57;;
803;SDS011;25687;49.976;8.240;2023-09-19T06:07:20;8.47;;;2.67;;
803;SDS011;25687;49.976;8.240;2023-09-19T06:09:47;3.10;;;2.07;;
803;SDS011;25687;49.976;8.240;2023-09-19T06:12:12;8.23;;;2.93;;
803;SDS011;25687;49.976;8.240;2023-09-19T06:14:40;3.30;;;2.40;;
803;SDS011;25687;49.976;8.240;2023-09-19T06:17:05;10.03;;;3.03;;
803;SDS011;25687;49.976;8.240;2023-09-19T06:19:31;8.30;;;2.53;;
803;SDS011;25687;49.976;8.240;2023-09-19T06:21:56;7.70;;;2.40;;
803;SDS011;25687;49.976;8.240;2023-09-19T06:24:21;3.40;;;2.17;;
803;SDS011;25687;49.976;8.240;2023-09-19T06:26:46;3.13;;;2.00;;
803;SDS011;25687;49.976;8.240;2023-09-19T06:29:12;5.13;;;2.40;;
803;SDS011;25687;49.976;8.240;2023-09-19T06:31:39;6.23;;;2.67;;
803;SDS011;25687;49.976;8.240;2023-09-19T06:34:04;6.90;;;2.37;;
803;SDS011;25687;49.976;8.240;2023-09-19T06:36:29;6.50;;;2.37;;
803;SDS011;25687;49.976;8.240;2023-09-19T06:38:55;8.27;;;2.47;;
803;SDS011;25687;49.976;8.240;2023-09-19T06:41:20;5.47;;;2.20;;
803;SDS011;25687;49.976;8.240;2023-09-19T06:43:49;2.93;;;1.97;;
803;SDS011;25687;49.976;8.240;2023-09-19T06:46:17;5.60;;;2.43;;
803;SDS011;25687;49.976;8.240;2023-09-19T06:48:43;4.93;;;2.33;;
803;SDS011;25687;49.976;8.240;2023-09-19T06:51:09;4.13;;;2.10;;
803;SDS011;25687;49.976;8.240;2023-09-19T06:53:34;6.07;;;1.93;;
803;SDS011;25687;49.976;8.240;2023-09-19T06:56:01;6.00;;;1.97;;
803;SDS011;25687;49.976;8.240;2023-09-19T06:58:27;3.60;;;1.97;;
803;SDS011;25687;49.976;8.240;2023-09-19T07:00:52;5.30;;;2.33;;
803;SDS011;25687;49.976;8.240;2023-09-19T07:03:18;6.53;;;2.10;;
803;SDS011;25687;49.976;8.240;2023-09-19T07:05:47;4.50;;;1.80;;
803;SDS011;25687;49.976;8.240;2023-09-19T07:08:20;7.53;;;2.60;;
803;SDS011;25687;49.976;8.240;2023-09-19T07:10:45;5.37;;;2.43;;
803;SDS011;25687;49.976;8.240;2023-09-19T07:13:13;7.03;;;2.20;;
803;SDS011;25687;49.976;8.240;2023-09-19T07:15:42;4.77;;;2.27;;
803;SDS011;25687;49.976;8.240;2023-09-19T07:18:12;3.43;;;2.20;;
803;SDS011;25687;49.976;8.240;2023-09-19T07:20:41;3.63;;;2.10;;
803;SDS011;25687;49.976;8.240;2023-09-19T07:23:13;4.57;;;2.30;;
803;SDS011;25687;49.976;8.240;2023-09-19T07:25:40;6.00;;;2.00;;
803;SDS011;25687;49.976;8.240;2023-09-19T07:28:05;3.73;;;1.83;;
803;SDS011;25687;49.976;8.240;2023-09-19T07:30:31;5.00;;;1.90;;
803;SDS011;25687;49.976;8.240;2023-09-19T07:32:56;3.20;;;1.33;;
803;SDS011;25687;49.976;8.240;2023-09-19T07:35:21;10.37;;;2.20;;
803;SDS011;25687;49.976;8.240;2023-09-19T07:37:47;5.13;;;1.93;;
803;SDS011;25687;49.976;8.240;2023-09-19T07:40:21;6.87;;;1.67;;
803;SDS011;25687;49.976;8.240;2023-09-19T07:42:46;6.70;;;2.20;;
803;SDS011;25687;49.976;8.240;2023-09-19T07:45:12;3.47;;;1.60;;
803;SDS011;25687;49.976;8.240;2023-09-19T07:47:40;3.97;;;1.80;;
803;SDS011;25687;49.976;8.240;2023-09-19T07:50:15;5.77;;;1.93;;
803;SDS011;25687;49.976;8.240;2023-09-19T07:52:43;5.43;;;2.10;;
803;SDS011;25687;49.976;8.240;2023-09-19T07:55:09;9.70;;;2.30;;
803;SDS011;25687;49.976;8.240;2023-09-19T07:57:36;5.20;;;2.07;;
803;SDS011;25687;49.976;8.240;2023-09-19T08:00:02;6.33;;;2.03;;
803;SDS011;25687;49.976;8.240;2023-09-19T08:02:30;3.60;;;1.60;;
803;SDS011;25687;49.976;8.240;2023-09-19T08:04:59;5.07;;;2.10;;
803;SDS011;25687;49.976;8.240;2023-09-19T08:07:25;6.33;;;2.13;;
803;SDS011;25687;49.976;8.240;2023-09-19T08:09:50;5.70;;;2.07;;
803;SDS011;25687;49.976;8.240;2023-09-19T08:12:16;4.27;;;1.80;;
803;SDS011;25687;49.976;8.240;2023-09-19T08:14:41;7.33;;;2.67;;
803;SDS011;25687;49.976;8.240;2023-09-19T08:17:07;4.73;;;2.03;;
803;SDS011;25687;49.976;8.240;2023-09-19T08:19:33;4.40;;;1.90;;
803;SDS011;25687;49.976;8.240;2023-09-19T08:21:58;4.10;;;1.70;;
803;SDS011;25687;49.976;8.240;2023-09-19T08:24:25;5.10;;;2.13;;
803;SDS011;25687;49.976;8.240;2023-09-19T08:26:53;5.13;;;1.90;;
803;SDS011;25687;49.976;8.240;2023-09-19T08:29:19;11.47;;;2.53;;
803;SDS011;25687;49.976;8.240;2023-09-19T08:31:45;5.50;;;2.00;;
803;SDS011;25687;49.976;8.240;2023-09-19T08:34:10;9.20;;;2.43;;
803;SDS011;25687;49.976;8.240;2023-09-19T08:36:35;9.37;;;2.30;;
803;SDS011;25687;49.976;8.240;2023-09-19T08:39:02;4.90;;;2.20;;
803;SDS011;25687;49.976;8.240;2023-09-19T08:41:27;4.60;;;2.20;;
803;SDS011;25687;49.976;8.240;2023-09-19T08:43:53;4.80;;;1.80;;
803;SDS011;25687;49.976;8.240;2023-09-19T08:46:18;7.47;;;2.50;;
803;SDS011;25687;49.976;8.240;2023-09-19T08:51:56;5.77;;;2.27;;
803;SDS011;25687;49.976;8.240;2023-09-19T08:54:45;5.83;;;1.83;;
803;SDS011;25687;49.976;8.240;2023-09-19T08:57:13;5.40;;;2.20;;
803;SDS011;25687;49.976;8.240;2023-09-19T08:59:46;5.43;;;2.27;;
803;SDS011;25687;49.976;8.240;2023-09-19T09:02:12;4.53;;;2.00;;
803;SDS011;25687;49.976;8.240;2023-09-19T09:04:43;6.07;;;2.47;;
803;SDS011;25687;49.976;8.240;2023-09-19T09:07:10;6.50;;;2.53;;
803;SDS011;25687;49.976;8.240;2023-09-19T09:09:37;6.77;;;2.60;;
803;SDS011;25687;49.976;8.240;2023-09-19T09:12:08;5.50;;;2.57;;
803;SDS011;25687;49.976;8.240;2023-09-19T09:14:38;5.23;;;2.67;;
803;SDS011;25687;49.976;8.240;2023-09-19T09:17:10;6.47;;;2.50;;
803;SDS011;25687;49.976;8.240;2023-09-19T09:19:36;4.57;;;2.10;;
803;SDS011;25687;49.976;8.240;2023-09-19T09:22:06;9.23;;;2.75;;
803;SDS011;25687;49.976;8.240;2023-09-19T09:24:32;4.07;;;2.15;;
803;SDS011;25687;49.976;8.240;2023-09-19T09:27:06;4.05;;;2.03;;
803;SDS011;25687;49.976;8.240;2023-09-19T09:29:48;4.63;;;2.35;;
803;SDS011;25687;49.976;8.240;2023-09-19T09:32:18;6.45;;;2.53;;
803;SDS011;25687;49.976;8.240;2023-09-19T09:34:56;6.07;;;2.17;;
803;SDS011;25687;49.976;8.240;2023-09-19T09:37:23;4.90;;;2.40;;
803;SDS011;25687;49.976;8.240;2023-09-19T09:39:50;5.78;;;2.53;;
803;SDS011;25687;49.976;8.240;2023-09-19T09:42:33;6.65;;;2.50;;
803;SDS011;25687;49.976;8.240;2023-09-19T09:47:43;5.13;;;2.40;;
803;SDS011;25687;49.976;8.240;2023-09-19T09:50:24;8.57;;;2.72;;
803;SDS011;25687;49.976;8.240;2023-09-19T09:52:54;5.38;;;2.38;;
803;SDS011;25687;49.976;8.240;2023-09-19T09:55:27;3.92;;;1.90;;
803;SDS011;25687;49.976;8.240;2023-09-19T10:00:53;7.30;;;2.63;;
803;SDS011;25687;49.976;8.240;2023-09-19T10:03:37;5.78;;;2.30;;
803;SDS011;25687;49.976;8.240;2023-09-19T10:06:08;6.88;;;2.60;;
803;SDS011;25687;49.976;8.240;2023-09-19T10:09:24;5.15;;;2.33;;
803;SDS011;25687;49.976;8.240;2023-09-19T10:11:46;4.47;;;2.15;;
803;SDS011;25687;49.976;8.240;2023-09-19T10:14:16;5.50;;;2.40;;
803;SDS011;25687;49.976;8.240;2023-09-19T10:16:48;8.13;;;2.60;;
803;SDS011;25687;49.976;8.240;2023-09-19T10:19:22;7.05;;;2.80;;
803;SDS011;25687;49.976;8.240;2023-09-19T10:21:55;7.78;;;2.58;;
803;SDS011;25687;49.976;8.240;2023-09-19T10:24:22;6.25;;;2.55;;
803;SDS011;25687;49.976;8.240;2023-09-19T10:26:50;4.88;;;2.22;;
803;SDS011;25687;49.976;8.240;2023-09-19T10:29:16;4.82;;;2.30;;
803;SDS011;25687;49.976;8.240;2023-09-19T10:31:43;6.63;;;2.67;;
803;SDS011;25687;49.976;8.240;2023-09-19T10:34:12;5.68;;;2.33;;
803;SDS011;25687;49.976;8.240;2023-09-19T10:36:39;7.28;;;2.40;;
803;SDS011;25687;49.976;8.240;2023-09-19T10:39:09;5.60;;;2.45;;
803;SDS011;25687;49.976;8.240;2023-09-19T10:41:38;6.07;;;2.30;;
803;SDS011;25687;49.976;8.240;2023-09-19T10:44:04;9.60;;;3.10;;
803;SDS011;25687;49.976;8.240;2023-09-19T10:46:34;6.47;;;2.70;;
803;SDS011;25687;49.976;8.240;2023-09-19T10:49:00;8.17;;;2.67;;
803;SDS011;25687;49.976;8.240;2023-09-19T10:51:27;8.13;;;2.60;;
803;SDS011;25687;49.976;8.240;2023-09-19T10:53:58;7.90;;;2.33;;
803;SDS011;25687;49.976;8.240;2023-09-19T10:56:32;7.00;;;2.60;;
803;SDS011;25687;49.976;8.240;2023-09-19T10:59:06;4.83;;;2.50;;
803;SDS011;25687;49.976;8.240;2023-09-19T11:01:44;7.40;;;2.53;;
803;SDS011;25687;49.976;8.240;2023-09-19T11:06:59;6.30;;;2.43;;
803;SDS011;25687;49.976;8.240;2023-09-19T11:09:25;6.23;;;2.37;;
803;SDS011;25687;49.976;8.240;2023-09-19T11:12:08;7.63;;;2.40;;
803;SDS011;25687;49.976;8.240;2023-09-19T11:14:37;6.10;;;2.47;;
803;SDS011;25687;49.976;8.240;2023-09-19T11:30:42;6.00;;;2.63;;
803;SDS011;25687;49.976;8.240;2023-09-19T11:36:13;9.20;;;2.30;;
803;SDS011;25687;49.976;8.240;2023-09-19T11:41:57;6.80;;;2.27;;
803;SDS011;25687;49.976;8.240;2023-09-19T11:46:35;4.90;;;2.23;;
803;SDS011;25687;49.976;8.240;2023-09-19T11:49:16;5.27;;;2.27;;
803;SDS011;25687;49.976;8.240;2023-09-19T11:51:45;12.20;;;2.57;;
803;SDS011;25687;49.976;8.240;2023-09-19T11:54:12;5.60;;;2.27;;
803;SDS011;25687;49.976;8.240;2023-09-19T11:56:43;6.97;;;2.30;;
803;SDS011;25687;49.976;8.240;2023-09-19T11:59:09;5.57;;;2.27;;
803;SDS011;25687;49.976;8.240;2023-09-19T12:01:34;5.10;;;1.83;;
803;SDS011;25687;49.976;8.240;2023-09-19T12:04:03;4.90;;;2.23;;
803;SDS011;25687;49.976;8.240;2023-09-19T12:06:29;7.17;;;2.80;;
803;SDS011;25687;49.976;8.240;2023-09-19T12:08:55;5.83;;;2.50;;
803;SDS011;25687;49.976;8.240;2023-09-19T12:11:22;6.30;;;2.60;;
803;SDS011;25687;49.976;8.240;2023-09-19T12:13:48;3.97;;;2.10;;
803;SDS011;25687;49.976;8.240;2023-09-19T12:16:14;7.10;;;2.17;;
803;SDS011;25687;49.976;8.240;2023-09-19T12:18:41;4.57;;;2.40;;
803;SDS011;25687;49.976;8.240;2023-09-19T12:21:20;6.30;;;2.50;;
803;SDS011;25687;49.976;8.240;2023-09-19T12:24:33;7.23;;;2.33;;
803;SDS011;25687;49.976;8.240;2023-09-19T12:26:44;4.00;;;2.13;;
803;SDS011;25687;49.976;8.240;2023-09-19T12:29:17;6.70;;;2.43;;
803;SDS011;25687;49.976;8.240;2023-09-19T12:34:26;4.63;;;2.07;;
803;SDS011;25687;49.976;8.240;2023-09-19T12:39:36;4.13;;;2.03;;
803;SDS011;25687;49.976;8.240;2023-09-19T12:42:16;3.80;;;2.10;;
803;SDS011;25687;49.976;8.240;2023-09-19T12:44:46;6.33;;;2.53;;
803;SDS011;25687;49.976;8.240;2023-09-19T12:47:15;6.07;;;1.80;;
803;SDS011;25687;49.976;8.240;2023-09-19T12:52:51;5.70;;;1.90;;
803;SDS011;25687;49.976;8.240;2023-09-19T12:55:21;4.53;;;2.20;;
803;SDS011;25687;49.976;8.240;2023-09-19T13:00:33;4.30;;;1.60;;
803;SDS011;25687;49.976;8.240;2023-09-19T13:03:09;6.63;;;1.93;;
803;SDS011;25687;49.976;8.240;2023-09-19T13:06:01;6.97;;;2.33;;
803;SDS011;25687;49.976;8.240;2023-09-19T13:08:32;3.20;;;1.77;;
803;SDS011;25687;49.976;8.240;2023-09-19T13:11:16;8.03;;;2.07;;
803;SDS011;25687;49.976;8.240;2023-09-19T13:14:14;5.33;;;2.23;;
803;SDS011;25687;49.976;8.240;2023-09-19T13:22:37;3.97;;;2.10;;
803;SDS011;25687;49.976;8.240;2023-09-19T13:25:14;3.93;;;1.77;;
803;SDS011;25687;49.976;8.240;2023-09-19T13:27:45;3.70;;;1.67;;
803;SDS011;25687;49.976;8.240;2023-09-19T13:30:14;3.93;;;1.80;;
803;SDS011;25687;49.976;8.240;2023-09-19T13:32:40;6.77;;;1.97;;
803;SDS011;25687;49.976;8.240;2023-09-19T13:35:07;4.53;;;1.90;;
803;SDS011;25687;49.976;8.240;2023-09-19T13:37:38;5.07;;;1.93;;
803;SDS011;25687;49.976;8.240;2023-09-19T13:40:08;3.83;;;1.80;;
803;SDS011;25687;49.976;8.240;2023-09-19T13:42:36;3.33;;;2.00;;
803;SDS011;25687;49.976;8.240;2023-09-19T13:45:03;5.27;;;1.63;;
803;SDS011;25687;49.976;8.240;2023-09-19T13:47:35;3.20;;;1.80;;
803;SDS011;25687;49.976;8.240;2023-09-19T13:50:03;5.47;;;1.70;;
803;SDS011;25687;49.976;8.240;2023-09-19T13:52:29;5.17;;;1.80;;
803;SDS011;25687;49.976;8.240;2023-09-19T13:54:55;3.83;;;2.03;;
803;SDS011;25687;49.976;8.240;2023-09-19T13:57:24;6.97;;;2.37;;
803;SDS011;25687;49.976;8.240;2023-09-19T13:59:51;4.37;;;1.63;;
803;SDS011;25687;49.976;8.240;2023-09-19T14:02:16;4.27;;;1.80;;
803;SDS011;25687;49.976;8.240;2023-09-19T14:04:43;4.63;;;1.60;;
803;SDS011;25687;49.976;8.240;2023-09-19T14:07:09;4.33;;;1.90;;
803;SDS011;25687;49.976;8.240;2023-09-19T14:09:35;8.57;;;1.73;;
803;SDS011;25687;49.976;8.240;2023-09-19T14:12:01;4.70;;;1.80;;
803;SDS011;25687;49.976;8.240;2023-09-19T14:14:26;9.73;;;2.27;;
803;SDS011;25687;49.976;8.240;2023-09-19T14:16:51;3.63;;;1.90;;
803;SDS011;25687;49.976;8.240;2023-09-19T14:19:18;3.80;;;1.77;;
803;SDS011;25687;49.976;8.240;2023-09-19T14:21:43;4.63;;;1.80;;
803;SDS011;25687;49.976;8.240;2023-09-19T14:24:08;4.27;;;1.93;;
803;SDS011;25687;49.976;8.240;2023-09-19T14:26:37;4.27;;;1.83;;
803;SDS011;25687;49.976;8.240;2023-09-19T14:29:04;3.77;;;2.00;;
803;SDS011;25687;49.976;8.240;2023-09-19T14:31:31;5.10;;;1.97;;
803;SDS011;25687;49.976;8.240;2023-09-19T14:33:57;3.70;;;1.63;;
803;SDS011;25687;49.976;8.240;2023-09-19T14:36:24;4.13;;;2.30;;
803;SDS011;25687;49.976;8.240;2023-09-19T14:38:51;4.60;;;1.77;;
803;SDS011;25687;49.976;8.240;2023-09-19T14:41:19;4.47;;;1.70;;
803;SDS011;25687;49.976;8.240;2023-09-19T14:43:44;4.83;;;2.03;;
803;SDS011;25687;49.976;8.240;2023-09-19T14:46:09;5.83;;;1.60;;
803;SDS011;25687;49.976;8.240;2023-09-19T14:48:35;6.83;;;2.07;;
803;SDS011;25687;49.976;8.240;2023-09-19T14:51:01;3.87;;;1.90;;
803;SDS011;25687;49.976;8.240;2023-09-19T14:53:31;4.10;;;1.40;;
803;SDS011;25687;49.976;8.240;2023-09-19T14:55:56;7.03;;;2.13;;
803;SDS011;25687;49.976;8.240;2023-09-19T14:58:24;3.27;;;1.80;;
803;SDS011;25687;49.976;8.240;2023-09-19T15:00:51;3.80;;;2.13;;
803;SDS011;25687;49.976;8.240;2023-09-19T15:03:17;3.37;;;1.57;;
803;SDS011;25687;49.976;8.240;2023-09-19T15:05:42;4.47;;;1.70;;
803;SDS011;25687;49.976;8.240;2023-09-19T15:08:08;3.93;;;1.87;;
803;SDS011;25687;49.976;8.240;2023-09-19T15:10:33;4.57;;;1.57;;
803;SDS011;25687;49.976;8.240;2023-09-19T15:12:59;2.83;;;1.50;;
803;SDS011;25687;49.976;8.240;2023-09-19T15:15:24;1.77;;;1.47;;
803;SDS011;25687;49.976;8.240;2023-09-19T15:17:49;4.10;;;1.90;;
803;SDS011;25687;49.976;8.240;2023-09-19T15:20:14;4.20;;;1.70;;
803;SDS011;25687;49.976;8.240;2023-09-19T15:22:40;3.30;;;1.10;;
803;SDS011;25687;49.976;8.240;2023-09-19T15:25:05;4.10;;;1.47;;
803;SDS011;25687;49.976;8.240;2023-09-19T15:27:31;3.03;;;1.40;;
803;SDS011;25687;49.976;8.240;2023-09-19T15:29:57;5.43;;;1.77;;
803;SDS011;25687;49.976;8.240;2023-09-19T15:32:24;2.27;;;1.50;;
803;SDS011;25687;49.976;8.240;2023-09-19T15:34:50;2.33;;;1.20;;
803;SDS011;25687;49.976;8.240;2023-09-19T15:37:15;7.33;;;1.70;;
803;SDS011;25687;49.976;8.240;2023-09-19T15:39:41;1.37;;;1.00;;
803;SDS011;25687;49.976;8.240;2023-09-19T15:42:06;4.93;;;1.93;;
803;SDS011;25687;49.976;8.240;2023-09-19T15:44:32;4.30;;;1.57;;
803;SDS011;25687;49.976;8.240;2023-09-19T15:46:57;3.23;;;1.30;;
803;SDS011;25687;49.976;8.240;2023-09-19T15:49:23;2.77;;;1.43;;
803;SDS011;25687;49.976;8.240;2023-09-19T15:51:48;2.53;;;1.47;;
803;SDS011;25687;49.976;8.240;2023-09-19T15:54:14;2.63;;;1.50;;
803;SDS011;25687;49.976;8.240;2023-09-19T15:56:43;1.67;;;1.27;;
803;SDS011;25687;49.976;8.240;2023-09-19T15:59:09;3.17;;;1.37;;
803;SDS011;25687;49.976;8.240;2023-09-19T16:01:37;2.77;;;1.30;;
803;SDS011;25687;49.976;8.240;2023-09-19T16:04:03;5.93;;;1.90;;
803;SDS011;25687;49.976;8.240;2023-09-19T16:06:29;3.70;;;1.60;;
803;SDS011;25687;49.976;8.240;2023-09-19T16:08:56;3.70;;;1.40;;
803;SDS011;25687;49.976;8.240;2023-09-19T16:11:23;2.93;;;1.40;;
803;SDS011;25687;49.976;8.240;2023-09-19T16:13:50;4.80;;;1.50;;
803;SDS011;25687;49.976;8.240;2023-09-19T16:16:17;3.40;;;1.53;;
803;SDS011;25687;49.976;8.240;2023-09-19T16:18:54;2.70;;;1.43;;
803;SDS011;25687;49.976;8.240;2023-09-19T16:21:22;4.40;;;1.40;;